sensor_id;sensor_type;location;lat;lon;timestamp;pressure;altitude;pressure_sealevel;temperature;humidity
13765;BME280;6953;48.810;9.204;2023-01-23T00:02:14;99997.66;;;2.87;100.00
13765;BME280;6953;48.810;9.204;2023-01-23T00:04:40;100001.16;;;2.87;100.00
13765;BME280;6953;48.810;9.204;2023-01-23T00:07:05;99996.81;;;2.89;100.00
13765;BME280;6953;48.810;9.204;2023-01-23T00:09:30;99981.28;;;2.86;100.00
13765;BME280;6953;48.810;9.204;2023-01-23T00:11:57;99939.03;;;2.51;100.00
13765;BME280;6953;48.810;9.204;2023-01-23T00:14:28;99737.25;;;1.57;100.00
13765;BME280;6953;48.810;9.204;2023-01-23T00:16:53;99713.16;;;1.40;100.00
13765;BME280;6953;48.810;9.204;2023-01-23T00:19:19;100001.09;;;3.08;100.00
13765;BME280;6953;48.810;9.204;2023-01-23T00:21:44;99995.06;;;3.12;100.00
13765;BME280;6953;48.810;9.204;2023-01-23T00:24:10;99784.66;;;1.83;100.00
13765;BME280;6953;48.810;9.204;2023-01-23T00:26:36;99987.28;;;3.15;100.00
13765;BME280;6953;48.810;9.204;2023-01-23T00:29:02;99864.78;;;2.46;100.00
13765;BME280;6953;48.810;9.204;2023-01-23T00:31:31;99765.66;;;1.93;100.00
13765;BME280;6953;48.810;9.204;2023-01-23T00:33:59;99734.63;;;1.77;100.00
13765;BME280;6953;48.810;9.204;2023-01-23T00:36:31;99995.88;;;3.21;100.00
13765;BME280;6953;48.810;9.204;2023-01-23T00:38:57;100020.03;;;3.29;100.00
13765;BME280;6953;48.810;9.204;2023-01-23T00:41:23;99993.25;;;3.32;100.00
13765;BME280;6953;48.810;9.204;2023-01-23T00:43:48;99970.81;;;3.19;100.00
13765;BME280;6953;48.810;9.204;2023-01-23T00:46:16;99942.34;;;3.04;100.00
13765;BME280;6953;48.810;9.204;2023-01-23T00:48:41;99988.06;;;3.30;100.00
13765;BME280;6953;48.810;9.204;2023-01-23T00:51:07;99999.28;;;3.32;100.00
13765;BME280;6953;48.810;9.204;2023-01-23T00:53:32;99913.91;;;2.83;100.00
13765;BME280;6953;48.810;9.204;2023-01-23T00:55:57;99990.69;;;3.26;100.00
13765;BME280;6953;48.810;9.204;2023-01-23T00:58:23;100016.63;;;3.20;100.00
13765;BME280;6953;48.810;9.204;2023-01-23T01:00:48;99670.06;;;1.32;100.00
13765;BME280;6953;48.810;9.204;2023-01-23T01:03:14;99982.97;;;3.08;100.00
13765;BME280;6953;48.810;9.204;2023-01-23T01:05:39;99956.25;;;2.70;100.00
13765;BME280;6953;48.810;9.204;2023-01-23T01:08:05;99987.31;;;2.94;100.00
13765;BME280;6953;48.810;9.204;2023-01-23T01:10:31;99902.75;;;2.36;100.00
13765;BME280;6953;48.810;9.204;2023-01-23T01:12:58;99743.31;;;1.31;100.00
13765;BME280;6953;48.810;9.204;2023-01-23T01:15:25;99922.63;;;2.27;100.00
13765;BME280;6953;48.810;9.204;2023-01-23T01:17:50;99770.00;;;1.28;100.00
13765;BME280;6953;48.810;9.204;2023-01-23T01:20:19;100022.75;;;2.74;100.00
13765;BME280;6953;48.810;9.204;2023-01-23T01:22:45;100075.44;;;2.78;100.00
13765;BME280;6953;48.810;9.204;2023-01-23T01:25:10;100055.53;;;2.86;100.00
13765;BME280;6953;48.810;9.204;2023-01-23T01:27:36;99917.47;;;2.13;100.00
13765;BME280;6953;48.810;9.204;2023-01-23T01:30:01;100020.13;;;2.98;100.00
13765;BME280;6953;48.810;9.204;2023-01-23T01:32:26;99905.38;;;2.29;100.00
13765;BME280;6953;48.810;9.204;2023-01-23T01:34:52;100028.78;;;3.05;100.00
13765;BME280;6953;48.810;9.204;2023-01-23T01:37:17;99964.00;;;2.76;100.00
13765;BME280;6953;48.810;9.204;2023-01-23T01:39:44;99619.25;;;0.83;100.00
13765;BME280;6953;48.810;9.204;2023-01-23T01:42:09;100027.00;;;3.15;100.00
13765;BME280;6953;48.810;9.204;2023-01-23T01:45:00;100032.19;;;3.21;100.00
13765;BME280;6953;48.810;9.204;2023-01-23T01:47:26;99971.78;;;2.84;100.00
13765;BME280;6953;48.810;9.204;2023-01-23T01:49:56;99994.19;;;2.98;100.00
13765;BME280;6953;48.810;9.204;2023-01-23T01:52:24;100002.84;;;3.06;100.00
13765;BME280;6953;48.810;9.204;2023-01-23T01:54:57;100036.50;;;3.19;100.00
13765;BME280;6953;48.810;9.204;2023-01-23T01:57:29;100014.94;;;3.07;100.00
13765;BME280;6953;48.810;9.204;2023-01-23T02:00:00;99933.84;;;2.51;100.00
13765;BME280;6953;48.810;9.204;2023-01-23T02:02:31;99870.88;;;2.21;100.00
13765;BME280;6953;48.810;9.204;2023-01-23T02:05:00;99776.88;;;1.68;100.00
13765;BME280;6953;48.810;9.204;2023-01-23T02:07:33;99847.56;;;2.06;100.00
13765;BME280;6953;48.810;9.204;2023-01-23T02:10:02;99899.31;;;2.43;100.00
13765;BME280;6953;48.810;9.204;2023-01-23T02:12:28;100041.69;;;3.25;100.00
13765;BME280;6953;48.810;9.204;2023-01-23T02:14:54;99816.53;;;1.96;100.00
13765;BME280;6953;48.810;9.204;2023-01-23T02:17:20;99726.06;;;1.51;100.00
13765;BME280;6953;48.810;9.204;2023-01-23T02:19:49;99781.22;;;1.78;100.00
13765;BME280;6953;48.810;9.204;2023-01-23T02:22:25;100033.00;;;3.37;100.00
13765;BME280;6953;48.810;9.204;2023-01-23T02:25:03;99887.22;;;2.56;100.00
13765;BME280;6953;48.810;9.204;2023-01-23T02:27:30;99970.03;;;2.98;100.00
13765;BME280;6953;48.810;9.204;2023-01-23T02:29:55;100036.47;;;3.37;100.00
13765;BME280;6953;48.810;9.204;2023-01-23T02:32:22;100069.31;;;3.38;100.00
13765;BME280;6953;48.810;9.204;2023-01-23T02:34:50;100016.59;;;3.26;100.00
13765;BME280;6953;48.810;9.204;2023-01-23T02:37:16;100026.09;;;3.28;100.00
13765;BME280;6953;48.810;9.204;2023-01-23T02:39:43;99840.69;;;2.23;100.00
13765;BME280;6953;48.810;9.204;2023-01-23T02:42:09;100023.50;;;3.28;100.00
13765;BME280;6953;48.810;9.204;2023-01-23T02:44:35;100018.34;;;3.22;100.00
13765;BME280;6953;48.810;9.204;2023-01-23T02:47:06;100017.50;;;3.23;100.00
13765;BME280;6953;48.810;9.204;2023-01-23T02:49:39;100059.81;;;3.34;100.00
13765;BME280;6953;48.810;9.204;2023-01-23T02:52:07;100026.97;;;3.35;100.00
13765;BME280;6953;48.810;9.204;2023-01-23T02:54:33;100024.38;;;3.33;100.00
13765;BME280;6953;48.810;9.204;2023-01-23T02:56:59;99941.53;;;2.89;100.00
13765;BME280;6953;48.810;9.204;2023-01-23T02:59:24;100026.94;;;3.36;100.00
13765;BME280;6953;48.810;9.204;2023-01-23T03:02:09;100023.53;;;3.27;100.00
13765;BME280;6953;48.810;9.204;2023-01-23T03:04:35;100039.06;;;3.31;100.00
13765;BME280;6953;48.810;9.204;2023-01-23T03:07:00;99996.81;;;3.03;100.00
13765;BME280;6953;48.810;9.204;2023-01-23T03:09:25;100066.75;;;3.34;100.00
13765;BME280;6953;48.810;9.204;2023-01-23T03:11:51;99775.16;;;1.85;100.00
13765;BME280;6953;48.810;9.204;2023-01-23T03:14:19;100039.94;;;3.33;100.00
13765;BME280;6953;48.810;9.204;2023-01-23T03:16:45;100026.09;;;3.33;100.00
13765;BME280;6953;48.810;9.204;2023-01-23T03:19:20;100039.91;;;3.42;100.00
13765;BME280;6953;48.810;9.204;2023-01-23T03:21:47;99892.38;;;2.60;100.00
13765;BME280;6953;48.810;9.204;2023-01-23T03:24:14;100038.16;;;3.43;100.00
13765;BME280;6953;48.810;9.204;2023-01-23T03:26:44;100038.19;;;3.41;100.00
13765;BME280;6953;48.810;9.204;2023-01-23T03:29:16;99787.22;;;1.89;100.00
13765;BME280;6953;48.810;9.204;2023-01-23T03:32:00;100021.78;;;3.30;100.00
13765;BME280;6953;48.810;9.204;2023-01-23T03:34:27;100047.72;;;3.30;100.00
13765;BME280;6953;48.810;9.204;2023-01-23T03:36:52;100058.06;;;3.36;100.00
13765;BME280;6953;48.810;9.204;2023-01-23T03:39:18;100028.69;;;3.37;100.00
13765;BME280;6953;48.810;9.204;2023-01-23T03:42:01;100025.22;;;3.37;100.00
13765;BME280;6953;48.810;9.204;2023-01-23T03:44:27;100022.59;;;3.40;100.00
13765;BME280;6953;48.810;9.204;2023-01-23T03:46:52;99998.44;;;3.29;100.00
13765;BME280;6953;48.810;9.204;2023-01-23T03:49:18;99899.28;;;2.70;100.00
13765;BME280;6953;48.810;9.204;2023-01-23T03:51:43;100035.63;;;3.28;100.00
13765;BME280;6953;48.810;9.204;2023-01-23T03:54:09;99717.44;;;1.61;100.00
13765;BME280;6953;48.810;9.204;2023-01-23T03:56:35;99987.22;;;3.18;100.00
13765;BME280;6953;48.810;9.204;2023-01-23T03:59:01;99825.13;;;2.18;100.00
13765;BME280;6953;48.810;9.204;2023-01-23T04:01:26;99838.06;;;2.26;100.00
13765;BME280;6953;48.810;9.204;2023-01-23T04:03:52;100035.56;;;3.43;100.00
13765;BME280;6953;48.810;9.204;2023-01-23T04:06:17;99782.91;;;1.99;100.00
13765;BME280;6953;48.810;9.204;2023-01-23T04:08:43;99995.88;;;3.21;100.00
13765;BME280;6953;48.810;9.204;2023-01-23T04:11:10;99824.25;;;2.22;100.00
13765;BME280;6953;48.810;9.204;2023-01-23T04:13:36;100042.47;;;3.50;100.00
13765;BME280;6953;48.810;9.204;2023-01-23T04:16:02;100018.31;;;3.36;100.00
13765;BME280;6953;48.810;9.204;2023-01-23T04:18:28;99997.63;;;3.16;100.00
13765;BME280;6953;48.810;9.204;2023-01-23T04:20:53;100082.25;;;3.50;100.00
13765;BME280;6953;48.810;9.204;2023-01-23T04:23:19;100045.06;;;3.51;100.00
13765;BME280;6953;48.810;9.204;2023-01-23T04:25:45;100062.34;;;3.52;100.00
13765;BME280;6953;48.810;9.204;2023-01-23T04:28:10;99920.84;;;2.72;100.00
13765;BME280;6953;48.810;9.204;2023-01-23T04:30:36;100055.47;;;3.44;100.00
13765;BME280;6953;48.810;9.204;2023-01-23T04:33:01;99894.13;;;2.46;100.00
13765;BME280;6953;48.810;9.204;2023-01-23T04:35:27;99996.75;;;3.14;100.00
13765;BME280;6953;48.810;9.204;2023-01-23T04:37:52;100064.91;;;3.57;100.00
13765;BME280;6953;48.810;9.204;2023-01-23T04:40:17;100056.28;;;3.50;100.00
13765;BME280;6953;48.810;9.204;2023-01-23T04:42:43;100066.69;;;3.50;100.00
13765;BME280;6953;48.810;9.204;2023-01-23T04:45:09;100066.66;;;3.59;100.00
13765;BME280;6953;48.810;9.204;2023-01-23T04:47:35;100078.75;;;3.59;100.00
13765;BME280;6953;48.810;9.204;2023-01-23T04:50:00;99998.50;;;3.15;100.00
13765;BME280;6953;48.810;9.204;2023-01-23T04:52:26;100077.03;;;3.59;100.00
13765;BME280;6953;48.810;9.204;2023-01-23T04:54:51;99995.06;;;3.12;100.00
13765;BME280;6953;48.810;9.204;2023-01-23T04:57:17;100061.47;;;3.50;100.00
13765;BME280;6953;48.810;9.204;2023-01-23T04:59:42;100009.72;;;3.19;100.00
13765;BME280;6953;48.810;9.204;2023-01-23T05:02:07;99981.22;;;3.01;100.00
13765;BME280;6953;48.810;9.204;2023-01-23T05:04:33;100076.19;;;3.57;100.00
13765;BME280;6953;48.810;9.204;2023-01-23T05:06:59;100076.19;;;3.57;100.00
13765;BME280;6953;48.810;9.204;2023-01-23T05:09:24;100079.63;;;3.61;100.00
13765;BME280;6953;48.810;9.204;2023-01-23T05:11:49;99821.72;;;2.13;100.00
13765;BME280;6953;48.810;9.204;2023-01-23T05:14:15;100075.28;;;3.63;100.00
13765;BME280;6953;48.810;9.204;2023-01-23T05:16:40;100077.91;;;3.64;100.00
13765;BME280;6953;48.810;9.204;2023-01-23T05:19:05;99840.66;;;2.26;100.00
13765;BME280;6953;48.810;9.204;2023-01-23T05:21:31;100003.66;;;3.20;100.00
13765;BME280;6953;48.810;9.204;2023-01-23T05:23:56;100031.28;;;3.37;100.00
13765;BME280;6953;48.810;9.204;2023-01-23T05:26:22;100066.66;;;3.65;100.00
13765;BME280;6953;48.810;9.204;2023-01-23T05:28:47;100025.22;;;3.38;100.00
13765;BME280;6953;48.810;9.204;2023-01-23T05:31:12;100070.97;;;3.62;100.00
13765;BME280;6953;48.810;9.204;2023-01-23T05:33:38;100087.38;;;3.70;100.00
13765;BME280;6953;48.810;9.204;2023-01-23T05:36:05;100054.59;;;3.48;100.00
13765;BME280;6953;48.810;9.204;2023-01-23T05:38:31;99801.84;;;2.08;100.00
13765;BME280;6953;48.810;9.204;2023-01-23T05:40:56;100083.91;;;3.69;100.00
13765;BME280;6953;48.810;9.204;2023-01-23T05:43:22;99849.25;;;2.35;100.00
13765;BME280;6953;48.810;9.204;2023-01-23T05:45:47;100070.09;;;3.63;100.00
13765;BME280;6953;48.810;9.204;2023-01-23T05:48:12;100102.09;;;3.71;100.00
13765;BME280;6953;48.810;9.204;2023-01-23T05:50:39;100030.41;;;3.38;100.00
13765;BME280;6953;48.810;9.204;2023-01-23T05:53:04;100081.31;;;3.71;100.00
13765;BME280;6953;48.810;9.204;2023-01-23T05:55:30;100029.53;;;3.42;100.00
13765;BME280;6953;48.810;9.204;2023-01-23T05:57:55;100005.41;;;3.22;100.00
13765;BME280;6953;48.810;9.204;2023-01-23T06:00:20;99829.44;;;2.19;100.00
13765;BME280;6953;48.810;9.204;2023-01-23T06:02:46;99895.84;;;2.49;100.00
13765;BME280;6953;48.810;9.204;2023-01-23T06:05:11;99923.44;;;2.63;100.00
13765;BME280;6953;48.810;9.204;2023-01-23T06:07:37;100105.56;;;3.70;100.00
13765;BME280;6953;48.810;9.204;2023-01-23T06:10:04;99924.31;;;2.68;100.00
13765;BME280;6953;48.810;9.204;2023-01-23T06:12:30;99840.69;;;2.20;100.00
13765;BME280;6953;48.810;9.204;2023-01-23T06:14:55;100108.13;;;3.73;100.00
13765;BME280;6953;48.810;9.204;2023-01-23T06:17:20;100036.47;;;3.34;100.00
13765;BME280;6953;48.810;9.204;2023-01-23T06:19:47;100046.81;;;3.43;100.00
13765;BME280;6953;48.810;9.204;2023-01-23T06:22:12;99840.69;;;2.20;100.00
13765;BME280;6953;48.810;9.204;2023-01-23T06:24:38;100106.41;;;3.70;100.00
13765;BME280;6953;48.810;9.204;2023-01-23T06:27:03;100112.50;;;3.66;100.00
13765;BME280;6953;48.810;9.204;2023-01-23T06:29:33;100115.09;;;3.57;100.00
13765;BME280;6953;48.810;9.204;2023-01-23T06:31:58;100079.72;;;3.16;100.00
13765;BME280;6953;48.810;9.204;2023-01-23T06:34:24;99869.13;;;1.87;100.00
13765;BME280;6953;48.810;9.204;2023-01-23T06:36:49;100151.47;;;3.21;100.00
13765;BME280;6953;48.810;9.204;2023-01-23T06:39:14;99837.25;;;1.61;100.00
13765;BME280;6953;48.810;9.204;2023-01-23T06:41:40;100062.47;;;2.85;100.00
13765;BME280;6953;48.810;9.204;2023-01-23T06:44:06;100148.00;;;3.30;100.00
13765;BME280;6953;48.810;9.204;2023-01-23T06:46:32;100117.72;;;3.20;100.00
13765;BME280;6953;48.810;9.204;2023-01-23T06:48:57;100147.09;;;3.37;100.00
13765;BME280;6953;48.810;9.204;2023-01-23T06:51:23;99967.50;;;2.36;100.00
13765;BME280;6953;48.810;9.204;2023-01-23T06:53:48;100144.50;;;3.43;100.00
13765;BME280;6953;48.810;9.204;2023-01-23T06:56:13;99956.28;;;2.25;100.00
13765;BME280;6953;48.810;9.204;2023-01-23T06:58:43;99978.72;;;2.37;100.00
13765;BME280;6953;48.810;9.204;2023-01-23T07:01:13;100014.97;;;2.65;100.00
13765;BME280;6953;48.810;9.204;2023-01-23T07:03:42;100174.75;;;3.57;100.00
13765;BME280;6953;48.810;9.204;2023-01-23T07:06:09;100176.50;;;3.54;100.00
13765;BME280;6953;48.810;9.204;2023-01-23T07:08:35;100088.34;;;3.18;100.00
13765;BME280;6953;48.810;9.204;2023-01-23T07:11:01;100174.75;;;3.71;100.00
13765;BME280;6953;48.810;9.204;2023-01-23T07:13:27;100064.19;;;3.07;100.00
13765;BME280;6953;48.810;9.204;2023-01-23T07:15:52;100159.19;;;3.62;100.00
13765;BME280;6953;48.810;9.204;2023-01-23T07:18:18;100181.66;;;3.75;100.00
13765;BME280;6953;48.810;9.204;2023-01-23T07:20:44;100178.19;;;3.80;100.00
13765;BME280;6953;48.810;9.204;2023-01-23T07:23:09;100193.75;;;3.80;100.00
13765;BME280;6953;48.810;9.204;2023-01-23T07:25:34;100109.94;;;3.38;100.00
13765;BME280;6953;48.810;9.204;2023-01-23T07:28:00;100098.72;;;3.30;100.00
13765;BME280;6953;48.810;9.204;2023-01-23T07:30:25;99939.03;;;2.41;100.00
13765;BME280;6953;48.810;9.204;2023-01-23T07:32:51;100173.88;;;3.73;100.00
13765;BME280;6953;48.810;9.204;2023-01-23T07:35:17;100199.78;;;3.88;100.00
13765;BME280;6953;48.810;9.204;2023-01-23T07:37:42;100221.41;;;3.90;100.00
13765;BME280;6953;48.810;9.204;2023-01-23T07:40:09;100185.94;;;3.92;100.00
13765;BME280;6953;48.810;9.204;2023-01-23T07:42:35;100167.81;;;3.80;100.00
13765;BME280;6953;48.810;9.204;2023-01-23T07:45:00;100209.28;;;4.00;100.00
13765;BME280;6953;48.810;9.204;2023-01-23T07:47:25;100196.31;;;3.95;100.00
13765;BME280;6953;48.810;9.204;2023-01-23T07:49:51;100181.59;;;3.97;100.00
13765;BME280;6953;48.810;9.204;2023-01-23T07:52:16;100189.34;;;4.09;100.00
13765;BME280;6953;48.810;9.204;2023-01-23T07:54:41;100120.22;;;3.69;100.00
13765;BME280;6953;48.810;9.204;2023-01-23T07:57:07;100110.75;;;3.67;100.00
13765;BME280;6953;48.810;9.204;2023-01-23T07:59:32;100026.13;;;3.21;100.00
13765;BME280;6953;48.810;9.204;2023-01-23T08:01:58;100186.72;;;4.21;99.68
13765;BME280;6953;48.810;9.204;2023-01-23T08:04:23;100195.38;;;4.26;100.00
13765;BME280;6953;48.810;9.204;2023-01-23T08:06:48;100051.97;;;3.55;100.00
13765;BME280;6953;48.810;9.204;2023-01-23T08:09:14;100197.03;;;4.36;100.00
13765;BME280;6953;48.810;9.204;2023-01-23T08:11:39;100146.03;;;4.14;99.13
13765;BME280;6953;48.810;9.204;2023-01-23T08:14:04;99928.56;;;2.98;99.08
13765;BME280;6953;48.810;9.204;2023-01-23T08:16:30;100187.44;;;4.54;99.17
13765;BME280;6953;48.810;9.204;2023-01-23T08:18:55;100182.25;;;4.50;98.29
13765;BME280;6953;48.810;9.204;2023-01-23T08:21:21;100186.44;;;4.76;98.01
13765;BME280;6953;48.810;9.204;2023-01-23T08:23:47;100204.69;;;4.69;97.69
13765;BME280;6953;48.810;9.204;2023-01-23T08:26:14;100183.81;;;4.84;97.38
13765;BME280;6953;48.810;9.204;2023-01-23T08:28:41;100215.00;;;4.84;97.00
13765;BME280;6953;48.810;9.204;2023-01-23T08:31:09;100082.78;;;4.25;97.33
13765;BME280;6953;48.810;9.204;2023-01-23T08:33:35;100170.91;;;4.66;97.18
13765;BME280;6953;48.810;9.204;2023-01-23T08:36:02;99962.97;;;3.44;96.46
13765;BME280;6953;48.810;9.204;2023-01-23T08:38:29;100109.63;;;4.27;96.25
13765;BME280;6953;48.810;9.204;2023-01-23T08:40:58;100151.09;;;4.48;96.03
13765;BME280;6953;48.810;9.204;2023-01-23T08:43:24;100204.75;;;4.55;96.02
13765;BME280;6953;48.810;9.204;2023-01-23T08:45:51;99994.03;;;3.47;95.56
13765;BME280;6953;48.810;9.204;2023-01-23T08:48:18;100180.47;;;4.61;96.02
13765;BME280;6953;48.810;9.204;2023-01-23T08:50:44;99939.66;;;3.31;94.93
13765;BME280;6953;48.810;9.204;2023-01-23T08:53:10;100053.56;;;3.91;94.72
13765;BME280;6953;48.810;9.204;2023-01-23T08:55:36;100202.91;;;4.77;93.70
13765;BME280;6953;48.810;9.204;2023-01-23T08:58:03;100180.19;;;5.03;93.24
13765;BME280;6953;48.810;9.204;2023-01-23T09:00:29;99934.97;;;3.97;92.17
13765;BME280;6953;48.810;9.204;2023-01-23T09:02:54;100167.66;;;5.51;89.78
13765;BME280;6953;48.810;9.204;2023-01-23T09:05:20;100184.94;;;5.59;88.45
13765;BME280;6953;48.810;9.204;2023-01-23T09:07:46;100179.81;;;5.49;88.08
13765;BME280;6953;48.810;9.204;2023-01-23T09:10:12;100190.28;;;5.43;88.46
13765;BME280;6953;48.810;9.204;2023-01-23T09:12:38;100184.16;;;5.47;87.93
13765;BME280;6953;48.810;9.204;2023-01-23T09:15:04;100176.22;;;5.62;86.90
13765;BME280;6953;48.810;9.204;2023-01-23T09:17:29;100111.28;;;5.48;85.72
13765;BME280;6953;48.810;9.204;2023-01-23T09:19:55;100181.88;;;6.07;83.35
13765;BME280;6953;48.810;9.204;2023-01-23T09:22:21;100181.75;;;6.18;80.78
13765;BME280;6953;48.810;9.204;2023-01-23T09:24:47;100003.22;;;5.16;80.81
13765;BME280;6953;48.810;9.204;2023-01-23T09:27:12;100162.91;;;5.93;80.49
13765;BME280;6953;48.810;9.204;2023-01-23T09:29:38;99955.22;;;4.61;80.63
13765;BME280;6953;48.810;9.204;2023-01-23T09:32:03;100199.44;;;5.90;81.38
13765;BME280;6953;48.810;9.204;2023-01-23T09:34:29;99985.53;;;4.59;80.95
13765;BME280;6953;48.810;9.204;2023-01-23T09:36:54;100190.06;;;5.67;80.48
13765;BME280;6953;48.810;9.204;2023-01-23T09:39:20;100191.94;;;5.53;80.51
13765;BME280;6953;48.810;9.204;2023-01-23T09:41:46;100198.06;;;5.47;80.80
13765;BME280;6953;48.810;9.204;2023-01-23T09:44:37;100192.03;;;5.39;80.85
13765;BME280;6953;48.810;9.204;2023-01-23T09:47:15;100205.84;;;5.49;80.58
13765;BME280;6953;48.810;9.204;2023-01-23T09:49:59;100197.22;;;5.42;80.50
13765;BME280;6953;48.810;9.204;2023-01-23T09:52:30;100205.09;;;5.38;80.50
13765;BME280;6953;48.810;9.204;2023-01-23T09:55:08;100208.56;;;5.37;81.33
13765;BME280;6953;48.810;9.204;2023-01-23T09:57:57;100243.22;;;5.37;80.97
13765;BME280;6953;48.810;9.204;2023-01-23T10:00:30;100169.69;;;5.16;81.35
13765;BME280;6953;48.810;9.204;2023-01-23T10:02:58;100207.69;;;5.36;82.18
13765;BME280;6953;48.810;9.204;2023-01-23T10:05:37;100193.78;;;5.40;81.29
13765;BME280;6953;48.810;9.204;2023-01-23T10:08:20;100205.72;;;5.62;81.69
13765;BME280;6953;48.810;9.204;2023-01-23T10:17:11;100203.44;;;6.18;78.98
13765;BME280;6953;48.810;9.204;2023-01-23T10:22:58;100181.41;;;5.66;79.60
13765;BME280;6953;48.810;9.204;2023-01-23T10:25:30;100218.66;;;5.70;79.83
13765;BME280;6953;48.810;9.204;2023-01-23T10:28:15;100210.78;;;5.80;80.25
13765;BME280;6953;48.810;9.204;2023-01-23T10:30:43;99988.97;;;4.64;79.50
13765;BME280;6953;48.810;9.204;2023-01-23T10:33:18;100175.63;;;6.20;78.70
13765;BME280;6953;48.810;9.204;2023-01-23T10:35:50;100130.41;;;6.24;77.82
13765;BME280;6953;48.810;9.204;2023-01-23T10:38:37;100104.34;;;6.22;76.92
13765;BME280;6953;48.810;9.204;2023-01-23T10:41:10;100184.66;;;6.61;77.05
13765;BME280;6953;48.810;9.204;2023-01-23T10:43:57;99991.56;;;5.48;76.84
13765;BME280;6953;48.810;9.204;2023-01-23T10:46:34;99956.47;;;5.10;76.88
13765;BME280;6953;48.810;9.204;2023-01-23T10:49:04;100202.25;;;6.44;77.64
13765;BME280;6953;48.810;9.204;2023-01-23T10:51:44;100210.06;;;6.46;77.40
13765;BME280;6953;48.810;9.204;2023-01-23T10:57:30;100109.06;;;5.97;76.67
13765;BME280;6953;48.810;9.204;2023-01-23T10:59:37;100185.00;;;6.34;77.33
13765;BME280;6953;48.810;9.204;2023-01-23T11:04:45;99976.56;;;4.96;77.17
13765;BME280;6953;48.810;9.204;2023-01-23T11:07:14;100186.13;;;6.13;77.78
13765;BME280;6953;48.810;9.204;2023-01-23T11:09:55;100171.34;;;6.15;77.97
13765;BME280;6953;48.810;9.204;2023-01-23T11:12:26;100175.53;;;6.27;77.01
13765;BME280;6953;48.810;9.204;2023-01-23T11:17:37;99928.41;;;5.36;76.27
13765;BME280;6953;48.810;9.204;2023-01-23T11:20:23;99931.50;;;5.63;75.53
13765;BME280;6953;48.810;9.204;2023-01-23T11:23:00;100061.41;;;6.52;74.10
13765;BME280;6953;48.810;9.204;2023-01-23T11:25:36;100159.78;;;6.97;74.86
13765;BME280;6953;48.810;9.204;2023-01-23T11:28:23;100131.94;;;6.99;75.03
13765;BME280;6953;48.810;9.204;2023-01-23T11:35:52;100136.94;;;7.12;73.72
13765;BME280;6953;48.810;9.204;2023-01-23T11:38:25;100081.13;;;6.68;74.06
13765;BME280;6953;48.810;9.204;2023-01-23T11:40:51;99962.25;;;6.02;74.35
13765;BME280;6953;48.810;9.204;2023-01-23T11:43:17;100129.09;;;7.12;75.03
13765;BME280;6953;48.810;9.204;2023-01-23T11:48:59;100093.09;;;6.82;74.07
13765;BME280;6953;48.810;9.204;2023-01-23T11:51:37;100048.53;;;6.40;74.00
13765;BME280;6953;48.810;9.204;2023-01-23T11:57:00;100120.97;;;6.77;75.49
13765;BME280;6953;48.810;9.204;2023-01-23T11:59:50;100121.06;;;6.71;76.03
13765;BME280;6953;48.810;9.204;2023-01-23T12:08:17;99897.22;;;5.31;76.36
13765;BME280;6953;48.810;9.204;2023-01-23T12:10:52;99847.13;;;5.17;76.52
13765;BME280;6953;48.810;9.204;2023-01-23T12:24:30;100110.81;;;6.58;77.40
13765;BME280;6953;48.810;9.204;2023-01-23T12:27:22;100116.72;;;6.70;77.26
13765;BME280;6953;48.810;9.204;2023-01-23T12:32:49;99854.84;;;5.85;75.55
13765;BME280;6953;48.810;9.204;2023-01-23T12:36:06;100085.41;;;7.70;75.05
13765;BME280;6953;48.810;9.204;2023-01-23T12:38:30;100008.25;;;7.54;73.80
13765;BME280;6953;48.810;9.204;2023-01-23T12:41:21;100078.19;;;7.84;73.71
13765;BME280;6953;48.810;9.204;2023-01-23T12:46:49;100065.31;;;8.16;72.33
13765;BME280;6953;48.810;9.204;2023-01-23T12:51:56;100064.91;;;9.08;68.95
13765;BME280;6953;48.810;9.204;2023-01-23T12:54:32;99894.56;;;7.79;69.42
13765;BME280;6953;48.810;9.204;2023-01-23T12:57:01;99957.66;;;7.99;69.95
13765;BME280;6953;48.810;9.204;2023-01-23T12:59:37;100041.81;;;8.53;70.42
13765;BME280;6953;48.810;9.204;2023-01-23T13:02:12;100047.28;;;8.44;70.48
13765;BME280;6953;48.810;9.204;2023-01-23T13:04:52;99970.25;;;7.80;70.96
13765;BME280;6953;48.810;9.204;2023-01-23T13:07:44;99935.19;;;7.52;71.50
13765;BME280;6953;48.810;9.204;2023-01-23T13:12:39;99957.59;;;7.64;71.83
13765;BME280;6953;48.810;9.204;2023-01-23T13:17:48;99817.41;;;6.84;71.83
13765;BME280;6953;48.810;9.204;2023-01-23T13:20:27;100045.00;;;8.29;71.51
13765;BME280;6953;48.810;9.204;2023-01-23T13:23:32;100030.47;;;8.54;71.28
13765;BME280;6953;48.810;9.204;2023-01-23T13:26:23;99828.28;;;7.83;69.62
13765;BME280;6953;48.810;9.204;2023-01-23T13:28:58;100059.47;;;9.17;68.61
13765;BME280;6953;48.810;9.204;2023-01-23T13:36:43;100061.31;;;8.40;70.23
13765;BME280;6953;48.810;9.204;2023-01-23T13:41:40;100047.06;;;8.88;69.58
13765;BME280;6953;48.810;9.204;2023-01-23T13:44:26;100052.03;;;8.99;69.44
13765;BME280;6953;48.810;9.204;2023-01-23T13:47:19;100034.78;;;8.92;69.46
13765;BME280;6953;48.810;9.204;2023-01-23T13:52:56;99983.38;;;8.89;68.25
13765;BME280;6953;48.810;9.204;2023-01-23T13:55:43;99981.78;;;8.84;67.92
13765;BME280;6953;48.810;9.204;2023-01-23T13:58:30;99807.13;;;7.57;68.53
13765;BME280;6953;48.810;9.204;2023-01-23T14:01:18;99828.19;;;7.49;69.84
13765;BME280;6953;48.810;9.204;2023-01-23T14:04:17;100043.44;;;8.59;70.11
13765;BME280;6953;48.810;9.204;2023-01-23T14:07:01;99776.22;;;7.00;70.58
13765;BME280;6953;48.810;9.204;2023-01-23T14:09:30;100023.19;;;8.30;71.12
13765;BME280;6953;48.810;9.204;2023-01-23T14:12:00;100045.63;;;8.40;71.65
13765;BME280;6953;48.810;9.204;2023-01-23T14:14:35;99963.06;;;7.91;71.75
13765;BME280;6953;48.810;9.204;2023-01-23T14:17:22;100060.97;;;8.16;72.42
13765;BME280;6953;48.810;9.204;2023-01-23T14:19:58;100053.25;;;8.09;72.88
13765;BME280;6953;48.810;9.204;2023-01-23T14:22:27;100071.09;;;7.90;73.82
13765;BME280;6953;48.810;9.204;2023-01-23T14:24:53;99976.56;;;7.29;74.00
13765;BME280;6953;48.810;9.204;2023-01-23T14:27:20;99985.50;;;7.17;74.80
13765;BME280;6953;48.810;9.204;2023-01-23T14:32:31;100057.69;;;7.18;76.48